Time;durP1;ratioP1;P1;durP2;ratioP2;P2;SDS_P1;SDS_P2;PMS_P1;PMS_P2;Temp;Humidity;BMP_temperature;BMP_pressure;BME280_temperature;BME280_humidity;BME280_pressure;Samples;Min_cycle;Max_cycle;Signal;HPM_P1;HPM_P2
2022/09/09 00:04:33;;;;;;;11.70;7.60;;;;;;;16.43;100.00;100207.92;5241021;56;1143155;-66
2022/09/09 00:09:49;;;;;;;13.90;7.93;;;;;;;16.52;100.00;100214.43;5219481;56;1143324;-67
2022/09/09 00:15:01;;;;;;;9.90;6.77;;;;;;;16.60;100.00;100212.28;5220756;56;1143214;-68
2022/09/09 00:20:41;;;;;;;7.95;5.97;;;;;;;16.64;100.00;100200.81;5195348;56;1141130;-70
2022/09/09 00:25:51;;;;;;;12.57;6.60;;;;;;;16.70;100.00;100199.63;5222270;56;1141216;-72
2022/09/09 00:31:15;;;;;;;6.23;5.57;;;;;;;16.74;100.00;100201.48;5218232;56;1141063;-68
2022/09/09 00:36:25;;;;;;;6.67;5.77;;;;;;;16.74;100.00;100192.13;5219446;56;1139109;-70
2022/09/09 00:41:41;;;;;;;8.73;6.57;;;;;;;16.75;100.00;100194.64;5220833;56;1139040;-65
2022/09/09 00:47:32;;;;;;;10.00;6.73;;;;;;;16.72;100.00;100198.97;5201610;56;1138926;-66
2022/09/09 00:52:42;;;;;;;12.33;7.80;;;;;;;16.68;100.00;100194.12;5118946;56;1143180;-67
2022/09/09 00:57:52;;;;;;;11.50;8.73;;;;;;;16.65;100.00;100189.94;5180864;56;1143415;-69
2022/09/09 01:03:24;;;;;;;14.07;8.97;;;;;;;16.63;100.00;100191.13;5184412;56;1143310;-70
2022/09/09 01:09:01;;;;;;;9.78;8.25;;;;;;;16.70;100.00;100201.47;5220117;56;1143204;-72
2022/09/09 01:14:26;;;;;;;10.50;8.40;;;;;;;16.79;100.00;100202.66;5221193;56;1141134;-67
2022/09/09 01:19:46;;;;;;;10.63;9.43;;;;;;;16.91;100.00;100217.01;5218812;56;1143289;-66
2022/09/09 01:25:16;;;;;;;13.07;10.90;;;;;;;16.92;100.00;100214.17;5217300;56;1143178;-65
2022/09/09 01:30:30;;;;;;;15.43;9.70;;;;;;;16.97;100.00;100217.66;5205628;56;1145248;-64
2022/09/09 01:35:44;;;;;;;11.43;9.17;;;;;;;16.97;100.00;100226.51;5217151;56;1143337;-67
2022/09/09 01:40:52;;;;;;;12.60;10.13;;;;;;;16.94;100.00;100224.20;5218938;56;1143383;-66
2022/09/09 01:46:02;;;;;;;14.93;10.33;;;;;;;16.93;100.00;100225.69;5186125;56;1145286;-66
2022/09/09 01:51:11;;;;;;;13.57;9.17;;;;;;;16.93;100.00;100225.20;5115041;56;1143224;-67
2022/09/09 01:56:54;;;;;;;13.17;10.10;;;;;;;16.97;100.00;100231.84;5185379;56;1141083;-67
2022/09/09 02:02:05;;;;;;;11.93;9.70;;;;;;;16.99;100.00;100227.17;5134276;57;1143789;-69
2022/09/09 02:07:32;;;;;;;14.10;9.57;;;;;;;16.97;100.00;100228.34;5184102;57;1141014;-70
2022/09/09 02:12:44;;;;;;;19.30;9.30;;;;;;;16.97;100.00;100223.84;5272743;56;1141167;-66
2022/09/09 02:17:53;;;;;;;11.97;9.60;;;;;;;16.96;100.00;100229.38;5304015;55;1139255;-67
2022/09/09 02:23:02;;;;;;;16.07;10.57;;;;;;;16.98;100.00;100236.69;5269797;56;1143144;-67
2022/09/09 02:28:11;;;;;;;12.77;9.63;;;;;;;16.99;100.00;100233.02;5193858;56;1145239;-67
2022/09/09 02:33:17;;;;;;;11.80;9.30;;;;;;;16.99;100.00;100229.02;5183817;57;1143103;-72
2022/09/09 02:38:28;;;;;;;21.13;9.73;;;;;;;17.01;100.00;100235.03;5138071;57;1143199;-67
2022/09/09 02:43:37;;;;;;;13.80;9.93;;;;;;;17.06;100.00;100240.72;5182377;56;1143400;-68
2022/09/09 02:49:03;;;;;;;14.63;10.33;;;;;;;17.12;100.00;100240.86;5148176;57;1143186;-68
2022/09/09 02:54:18;;;;;;;13.93;9.83;;;;;;;17.13;100.00;100241.70;5184003;56;1145263;-69
2022/09/09 02:59:26;;;;;;;14.27;10.30;;;;;;;17.08;100.00;100245.39;5183027;56;1143220;-69
2022/09/09 03:04:32;;;;;;;16.27;11.73;;;;;;;17.04;100.00;100250.23;5252696;55;1145183;-67
2022/09/09 03:09:38;;;;;;;14.40;10.60;;;;;;;17.04;100.00;100252.91;5159668;56;1145257;-70
2022/09/09 03:14:45;;;;;;;13.87;9.97;;;;;;;17.09;100.00;100255.08;5247114;56;1145273;-66
2022/09/09 03:19:54;;;;;;;16.10;9.90;;;;;;;17.14;100.00;100261.58;5222205;56;1143378;-66
2022/09/09 03:25:00;;;;;;;10.23;9.13;;;;;;;17.17;100.00;100253.73;5236469;56;1143159;-67
2022/09/09 03:30:07;;;;;;;13.37;11.10;;;;;;;17.20;100.00;100256.08;5207500;56;1143398;-67
2022/09/09 03:35:13;;;;;;;16.20;12.20;;;;;;;17.23;100.00;100256.58;5238244;56;1145247;-70
2022/09/09 03:40:20;;;;;;;13.47;10.63;;;;;;;17.25;100.00;100257.75;5228254;56;1145273;-69
2022/09/09 03:45:27;;;;;;;16.83;9.83;;;;;;;17.23;100.00;100267.77;5215599;56;1145493;-69
2022/09/09 03:50:33;;;;;;;12.10;9.23;;;;;;;17.22;100.00;100261.59;5228533;56;1143505;-69
2022/09/09 03:55:41;;;;;;;14.37;12.30;;;;;;;17.27;100.00;100274.92;5236999;56;1143076;-67
2022/09/09 04:01:02;;;;;;;16.73;12.83;;;;;;;17.25;100.00;100275.13;5196411;56;1145408;-65
2022/09/09 04:06:13;;;;;;;20.10;11.90;;;;;;;17.22;100.00;100276.29;5206890;56;1145497;-68
2022/09/09 04:11:19;;;;;;;14.97;11.20;;;;;;;17.25;100.00;100268.45;5274160;56;1145331;-68
2022/09/09 04:16:27;;;;;;;15.40;10.07;;;;;;;17.19;100.00;100275.78;5273978;56;1145316;-67
2022/09/09 04:21:33;;;;;;;11.43;9.13;;;;;;;17.22;100.00;100280.80;5259179;56;1145413;-68
2022/09/09 04:26:40;;;;;;;9.67;8.77;;;;;;;17.16;100.00;100286.80;5229032;56;1141321;-68
2022/09/09 04:31:46;;;;;;;9.73;8.53;;;;;;;17.04;100.00;100296.99;5246384;56;1139053;-70
2022/09/09 04:36:52;;;;;;;8.67;7.90;;;;;;;16.97;100.00;100304.48;5186469;56;1139065;-67
2022/09/09 04:41:58;;;;;;;9.60;8.50;;;;;;;16.88;100.00;100303.16;5190047;56;1138988;-68
2022/09/09 04:47:04;;;;;;;12.57;8.97;;;;;;;16.83;100.00;100308.64;5135226;56;1139233;-68
2022/09/09 04:52:10;;;;;;;10.87;9.30;;;;;;;16.80;100.00;100313.00;5135377;57;1141175;-71
2022/09/09 04:57:16;;;;;;;8.70;7.90;;;;;;;16.76;100.00;100309.81;5202466;56;1141298;-69
2022/09/09 05:02:22;;;;;;;8.50;7.70;;;;;;;16.76;100.00;100308.48;5189795;56;1139400;-69
2022/09/09 05:07:31;;;;;;;20.77;8.47;;;;;;;16.75;100.00;100317.48;5192491;56;1139096;-71
2022/09/09 05:12:36;;;;;;;10.00;8.87;;;;;;;16.74;100.00;100320.32;5189306;56;1141171;-69
2022/09/09 05:17:42;;;;;;;8.73;7.93;;;;;;;16.73;100.00;100322.16;5093611;57;1141183;-66
2022/09/09 05:22:49;;;;;;;8.07;7.27;;;;;;;16.75;100.00;100325.50;5128509;57;1139078;-68
2022/09/09 05:27:55;;;;;;;9.10;8.20;;;;;;;16.77;100.00;100331.52;5134654;56;1139349;-69
2022/09/09 05:33:01;;;;;;;8.43;7.73;;;;;;;16.76;100.00;100328.52;5218556;56;1138985;-72
2022/09/09 05:38:08;;;;;;;11.57;10.47;;;;;;;16.76;100.00;100333.85;5180656;56;1139252;-68
2022/09/09 05:43:15;;;;;;;10.47;8.60;;;;;;;16.81;100.00;100337.34;5184780;57;1143328;-69
2022/09/09 05:48:22;;;;;;;10.37;9.37;;;;;;;16.84;100.00;100341.03;5120540;57;1141368;-68
2022/09/09 05:53:32;;;;;;;12.73;9.30;;;;;;;16.87;100.00;100347.39;5214555;56;1139075;-69
2022/09/09 05:58:39;;;;;;;9.83;8.35;;;;;;;16.88;100.00;100337.88;5289309;56;1143165;-67
2022/09/09 06:03:49;;;;;;;9.97;8.80;;;;;;;16.90;100.00;100339.55;5107542;57;1141261;-67
2022/09/09 06:09:00;;;;;;;11.10;8.23;;;;;;;16.92;100.00;100342.91;5221229;56;1141011;-70
2022/09/09 06:14:09;;;;;;;9.17;6.77;;;;;;;16.99;100.00;100347.41;5135255;56;1143380;-65
2022/09/09 06:19:15;;;;;;;6.20;5.60;;;;;;;17.09;100.00;100355.30;5135373;57;1141134;-64
2022/09/09 06:24:22;;;;;;;6.30;5.80;;;;;;;17.16;100.00;100355.79;5135258;56;1141075;-68
2022/09/09 06:29:27;;;;;;;6.80;6.20;;;;;;;17.15;100.00;100351.94;5135136;57;1141142;-67
2022/09/09 06:34:33;;;;;;;8.87;6.30;;;;;;;17.16;100.00;100359.80;5134555;57;1141091;-66
2022/09/09 06:39:41;;;;;;;5.86;5.02;;;;;;;17.20;100.00;100366.49;5135060;56;1141166;-72
2022/09/09 06:44:47;;;;;;;5.37;4.37;;;;;;;17.17;100.00;100368.65;5176147;56;1141079;-68
2022/09/09 06:49:58;;;;;;;7.43;6.03;;;;;;;17.10;100.00;100363.14;5184635;56;1141214;-69
2022/09/09 06:55:04;;;;;;;8.03;6.27;;;;;;;16.98;100.00;100373.79;5216250;56;1141098;-66
2022/09/09 07:00:13;;;;;;;5.10;4.60;;;;;;;16.97;100.00;100370.78;5161905;57;1141145;-66
2022/09/09 07:05:19;;;;;;;6.23;5.73;;;;;;;17.03;100.00;100375.48;5130279;57;1141043;-68
2022/09/09 07:10:26;;;;;;;13.60;6.00;;;;;;;17.01;100.00;100381.48;5198401;56;1141153;-68
2022/09/09 07:15:33;;;;;;;5.40;5.00;;;;;;;17.01;100.00;100377.97;5179427;56;1143210;-66
2022/09/09 07:20:39;;;;;;;7.50;5.13;;;;;;;17.06;100.00;100375.16;5205433;56;1141310;-66
2022/09/09 07:25:50;;;;;;;9.70;5.77;;;;;;;17.18;100.00;100381.02;5196254;56;1141137;-69
2022/09/09 07:31:04;;;;;;;6.80;6.13;;;;;;;17.35;100.00;100384.05;5224114;56;1141098;-69
2022/09/09 07:36:25;;;;;;;7.13;6.00;;;;;;;17.51;100.00;100384.55;5184070;56;1141192;-70
2022/09/09 07:41:39;;;;;;;5.78;5.33;;;;;;;17.57;100.00;100385.20;5230928;56;1141121;-67
2022/09/09 07:46:47;;;;;;;8.53;6.50;;;;;;;17.64;100.00;100392.10;5198680;56;1141148;-66
2022/09/09 07:51:55;;;;;;;6.70;6.10;;;;;;;17.56;100.00;100398.27;5202025;56;1141112;-67
2022/09/09 07:57:03;;;;;;;7.33;6.28;;;;;;;17.58;100.00;100407.77;5151542;56;1141341;-67
2022/09/09 08:02:11;;;;;;;6.73;6.13;;;;;;;17.60;100.00;100403.59;5288151;55;1141094;-67
2022/09/09 08:07:17;;;;;;;8.93;5.80;;;;;;;17.64;100.00;100417.52;5199315;56;1141117;-69
2022/09/09 08:12:24;;;;;;;6.07;5.47;;;;;;;17.93;100.00;100419.17;5223664;56;1139056;-71
2022/09/09 08:17:31;;;;;;;6.55;5.95;;;;;;;17.93;100.00;100419.17;5278431;55;1139001;-68
2022/09/09 08:22:38;;;;;;;7.30;5.53;;;;;;;18.28;100.00;100422.80;5184950;56;1139301;-68
2022/09/09 08:27:44;;;;;;;5.75;5.33;;;;;;;18.69;100.00;100424.03;5254629;56;1139215;-73
2022/09/09 08:32:51;;;;;;;7.22;5.60;;;;;;;18.73;100.00;100422.69;5245091;56;1139012;-72
2022/09/09 08:37:57;;;;;;;5.17;4.78;;;;;;;18.54;100.00;100428.41;5134829;57;1139245;-69
2022/09/09 08:43:06;;;;;;;5.50;4.42;;;;;;;18.65;100.00;100426.72;5190632;56;1138997;-71
2022/09/09 08:48:38;;;;;;;5.97;5.37;;;;;;;18.86;100.00;100418.94;5165323;56;1139060;-69
2022/09/09 08:53:49;;;;;;;4.53;4.12;;;;;;;19.05;100.00;100419.02;5107604;56;1138993;-72
2022/09/09 08:58:57;;;;;;;5.60;5.10;;;;;;;19.35;100.00;100433.91;5196922;56;1138992;-70
2022/09/09 09:04:41;;;;;;;7.00;5.75;;;;;;;19.68;100.00;100438.06;5171184;56;1137215;-69
2022/09/09 09:10:23;;;;;;;6.47;5.67;;;;;;;19.97;100.00;100435.46;5195756;56;1141128;-67
2022/09/09 09:15:40;;;;;;;5.42;4.55;;;;;;;20.23;100.00;100434.20;5186990;55;1141065;-67
2022/09/09 09:21:03;;;;;;;5.20;4.75;;;;;;;20.44;100.00;100437.04;5205358;56;1140950;-69
2022/09/09 09:26:11;;;;;;;;;;;;;;;20.45;100.00;100428.47;5284615;55;1141063;-68
2022/09/09 09:31:21;;;;;;;6.42;4.25;;;;;;;20.41;99.89;100437.41;5227791;55;978357;-67
2022/09/09 09:36:47;;;;;;;5.28;3.90;;;;;;;20.40;99.01;100434.39;5209196;55;1137132;-70
2022/09/09 09:41:56;;;;;;;4.22;3.88;;;;;;;20.44;99.84;100439.72;5203117;56;1138966;-65
2022/09/09 09:47:21;;;;;;;3.85;3.50;;;;;;;20.45;97.47;100436.02;5260062;55;1138900;-66
2022/09/09 09:52:57;;;;;;;4.00;2.83;;;;;;;20.81;99.37;100433.90;5265805;55;1136868;-68
2022/09/09 09:58:06;;;;;;;4.45;2.20;;;;;;;21.15;91.49;100438.66;5219759;56;1136976;-69
2022/09/09 10:03:22;;;;;;;2.20;1.87;;;;;;;21.28;92.66;100441.53;5214255;55;1137170;-71
2022/09/09 10:08:29;;;;;;;1.60;1.52;;;;;;;21.44;90.44;100437.25;5204159;56;1136957;-67
2022/09/09 10:14:00;;;;;;;2.15;1.90;;;;;;;21.44;88.41;100432.38;5221567;56;1137028;-68
2022/09/09 10:19:16;;;;;;;2.50;2.30;;;;;;;21.60;89.20;100438.86;5217649;56;1137123;-68
2022/09/09 10:24:58;;;;;;;7.53;2.65;;;;;;;21.75;89.45;100437.77;5196549;56;1134759;-70
2022/09/09 10:30:17;;;;;;;3.58;3.22;;;;;;;21.94;86.40;100437.63;5219563;56;1138984;-69
2022/09/09 10:36:18;;;;;;;3.37;3.12;;;;;;;22.12;88.31;100430.95;5204377;56;1139009;-70
2022/09/09 10:41:34;;;;;;;5.00;3.40;;;;;;;22.46;86.44;100438.53;5193727;56;1139284;-71
2022/09/09 10:47:20;;;;;;;3.90;3.47;;;;;;;22.75;82.46;100445.56;5218331;56;1139198;-69
2022/09/09 10:53:03;;;;;;;3.35;3.15;;;;;;;22.78;82.14;100439.77;5239073;56;1138980;-73
2022/09/09 10:58:13;;;;;;;4.42;4.03;;;;;;;22.78;84.54;100445.68;5274954;55;1136803;-72
2022/09/09 11:03:33;;;;;;;3.83;3.40;;;;;;;22.83;82.12;100446.44;5219438;56;1136879;-69
2022/09/09 11:08:39;;;;;;;3.42;3.20;;;;;;;22.79;82.85;100446.83;5212754;56;1136903;-68
2022/09/09 11:14:08;;;;;;;5.55;3.45;;;;;;;22.93;79.82;100443.67;5228265;56;1136944;-66
2022/09/09 11:19:21;;;;;;;3.83;3.52;;;;;;;22.87;81.17;100453.11;5223018;56;1136992;-70
2022/09/09 11:24:44;;;;;;;5.12;4.53;;;;;;;22.94;81.48;100443.99;5219138;56;1137053;-68
2022/09/09 11:29:57;;;;;;;4.15;3.75;;;;;;;22.95;80.38;100440.27;5224776;56;1139146;-71
2022/09/09 11:35:22;;;;;;;3.37;3.07;;;;;;;23.00;81.12;100441.85;5248580;55;1138530;-67
2022/09/09 11:40:32;;;;;;;4.33;3.95;;;;;;;22.84;79.49;100447.59;5206600;55;1138939;-65
2022/09/09 11:45:38;;;;;;;4.10;3.75;;;;;;;22.63;80.51;100448.48;5218866;56;1139083;-70
2022/09/09 11:50:44;;;;;;;3.80;3.50;;;;;;;22.64;81.21;100439.88;5237121;56;1138985;-68
2022/09/09 11:56:01;;;;;;;5.28;3.75;;;;;;;22.63;80.24;100441.73;5279914;55;1139123;-69
2022/09/09 12:01:37;;;;;;;3.98;3.55;;;;;;;22.49;80.15;100455.34;5260074;55;1139089;-72
2022/09/09 12:07:02;;;;;;;5.25;3.10;;;;;;;22.59;81.98;100447.23;5244491;55;1138986;-66
2022/09/09 12:12:18;;;;;;;3.27;3.05;;;;;;;22.82;79.72;100440.73;5280617;55;1139033;-71
2022/09/09 12:17:27;;;;;;;5.72;3.50;;;;;;;22.99;81.56;100436.66;5182157;56;1139301;-67
2022/09/09 12:22:49;;;;;;;6.37;3.37;;;;;;;23.27;80.50;100426.58;5295035;56;1139328;-67
2022/09/09 12:28:19;;;;;;;3.80;3.10;;;;;;;23.47;80.75;100422.58;5235873;55;1139283;-68
2022/09/09 12:33:26;;;;;;;9.95;2.37;;;;;;;23.57;78.85;100419.49;5230210;56;1136924;-67
2022/09/09 12:38:37;;;;;;;3.62;1.70;;;;;;;23.72;78.94;100418.78;5293079;56;1136947;-69
2022/09/09 12:43:43;;;;;;;2.72;2.12;;;;;;;23.70;77.38;100417.63;5319198;55;1136977;-70
2022/09/09 12:48:49;;;;;;;6.80;2.00;;;;;;;23.64;77.22;100411.73;5235781;55;1136980;-72
2022/09/09 12:53:57;;;;;;;3.15;1.70;;;;;;;23.56;77.44;100414.61;5216252;56;1136853;-69
2022/09/09 12:59:02;;;;;;;2.25;2.05;;;;;;;23.47;76.81;100405.03;5230093;56;1137213;-67
2022/09/09 13:04:22;;;;;;;2.20;1.95;;;;;;;23.30;77.19;100403.23;5239566;56;1137187;-69
2022/09/09 13:09:28;;;;;;;3.83;2.00;;;;;;;23.14;78.11;100400.39;5146280;56;1137280;-67
2022/09/09 13:14:38;;;;;;;11.70;2.55;;;;;;;23.08;78.02;100394.45;5163808;56;1136967;-70
2022/09/09 13:19:46;;;;;;;1.87;1.70;;;;;;;23.10;78.29;100393.73;5145931;56;1139276;-69
2022/09/09 13:25:12;;;;;;;3.83;2.20;;;;;;;23.18;78.70;100399.98;5143009;57;1136991;-68
2022/09/09 13:30:32;;;;;;;6.63;1.83;;;;;;;23.19;78.21;100393.56;5133993;56;1139111;-69
2022/09/09 13:35:54;;;;;;;2.90;1.98;;;;;;;23.27;77.76;100396.05;5188968;56;1139017;-68
2022/09/09 13:41:07;;;;;;;1.70;1.65;;;;;;;23.31;77.10;100390.57;5185715;56;1138972;-68
2022/09/09 13:46:41;;;;;;;11.12;2.22;;;;;;;23.49;77.98;100393.52;5172266;56;1139085;-66
2022/09/09 13:51:55;;;;;;;1.55;1.45;;;;;;;23.77;78.28;100387.42;5152265;56;1141087;-68
2022/09/09 13:57:01;;;;;;;3.95;2.20;;;;;;;23.99;75.44;100381.78;5169262;57;1139028;-68
2022/09/09 14:02:07;;;;;;;9.80;4.90;;;;;;;24.03;73.94;100385.73;5180725;56;1138971;-70
2022/09/09 14:07:16;;;;;;;2.42;1.60;;;;;;;24.12;74.62;100378.57;5167596;56;1139051;-68
2022/09/09 14:12:21;;;;;;;4.07;1.80;;;;;;;24.14;71.79;100374.28;5141386;57;1139157;-68
2022/09/09 14:17:30;;;;;;;4.70;1.42;;;;;;;24.14;71.79;100374.28;5186531;57;1139091;-70
2022/09/09 14:22:35;;;;;;;2.00;0.80;;;;;;;24.08;70.78;100380.54;5186824;57;1139333;-69
2022/09/09 14:27:42;;;;;;;2.40;0.90;;;;;;;24.10;70.40;100378.47;5186804;56;1139009;-67
2022/09/09 14:32:49;;;;;;;3.25;1.02;;;;;;;24.00;68.81;100380.22;5186979;56;1139012;-70
2022/09/09 14:37:56;;;;;;;1.02;0.82;;;;;;;23.90;67.57;100370.38;5186712;56;1139113;-70
2022/09/09 14:43:02;;;;;;;4.30;1.42;;;;;;;23.85;67.22;100360.19;5136080;56;1139132;-69
2022/09/09 14:48:08;;;;;;;0.80;0.80;;;;;;;23.88;67.91;100358.95;5102385;56;1139023;-72
2022/09/09 14:53:14;;;;;;;2.70;1.95;;;;;;;24.12;67.64;100370.46;5128363;57;1139069;-69
2022/09/09 14:58:20;;;;;;;3.47;1.37;;;;;;;24.38;66.55;100374.16;5167219;57;1139076;-69
2022/09/09 15:03:25;;;;;;;22.80;16.48;;;;;;;24.52;64.25;100375.26;5136390;57;1138853;-67
2022/09/09 15:08:31;;;;;;;3.60;2.80;;;;;;;24.57;66.03;100376.50;5136428;56;1143187;-69
2022/09/09 15:13:39;;;;;;;1.75;1.10;;;;;;;24.64;64.90;100375.42;5136232;56;1139006;-67
2022/09/09 15:18:47;;;;;;;2.17;1.00;;;;;;;24.49;62.45;100373.50;5234265;56;1139071;-73
2022/09/09 15:23:53;;;;;;;3.55;1.15;;;;;;;24.42;62.70;100377.59;5161169;56;1137101;-66
2022/09/09 15:28:59;;;;;;;3.50;1.00;;;;;;;24.41;63.29;100373.75;5116726;56;1136971;-71
2022/09/09 15:34:08;;;;;;;1.92;1.30;;;;;;;24.37;62.56;100368.45;5241733;55;1136976;-72
2022/09/09 15:39:17;;;;;;;1.20;0.80;;;;;;;24.40;64.26;100370.21;5155249;56;1137179;-69
2022/09/09 15:44:25;;;;;;;3.62;1.10;;;;;;;24.45;64.35;100369.03;5203301;57;1136947;-69
2022/09/09 15:49:31;;;;;;;3.50;1.10;;;;;;;24.49;65.03;100365.39;5072830;57;1136930;-66
2022/09/09 15:54:40;;;;;;;1.50;1.10;;;;;;;24.56;64.65;100362.67;5078106;56;1137221;-66
2022/09/09 15:59:48;;;;;;;2.35;1.37;;;;;;;24.53;64.83;100359.34;5085489;57;1137017;-67
2022/09/09 16:04:53;;;;;;;13.25;2.27;;;;;;;24.56;64.76;100356.74;5128561;57;1137062;-70
2022/09/09 16:09:59;;;;;;;2.55;1.32;;;;;;;24.50;63.23;100354.36;5299051;56;1139035;-70
2022/09/09 16:15:07;;;;;;;5.60;1.87;;;;;;;24.50;64.00;100365.17;5299301;56;1136953;-70
2022/09/09 16:20:14;;;;;;;3.52;2.08;;;;;;;24.50;65.02;100368.40;5267470;56;1137051;-71
2022/09/09 16:25:20;;;;;;;3.37;1.10;;;;;;;24.37;64.58;100373.33;5299141;56;1137051;-68
2022/09/09 16:30:26;;;;;;;4.80;1.37;;;;;;;24.28;65.00;100369.73;5298954;55;1136977;-72
2022/09/09 16:35:31;;;;;;;12.78;4.37;;;;;;;24.20;65.30;100375.63;5297191;55;1137135;-67
2022/09/09 16:40:41;;;;;;;4.03;2.70;;;;;;;24.10;65.88;100361.73;5320908;55;1137027;-70
2022/09/09 16:45:47;;;;;;;5.60;2.58;;;;;;;24.04;66.33;100368.48;5310790;55;1135011;-69
2022/09/09 16:50:52;;;;;;;10.48;2.30;;;;;;;23.96;66.64;100378.17;5321370;54;1139301;-69
2022/09/09 16:55:58;;;;;;;11.43;5.47;;;;;;;23.91;67.25;100377.96;5366038;55;1141352;-67
2022/09/09 17:01:05;;;;;;;31.60;17.77;;;;;;;23.85;67.17;100381.80;5369968;55;1141039;-69
2022/09/09 17:06:15;;;;;;;9.93;4.50;;;;;;;23.70;67.00;100379.00;5369538;54;1143301;-71
2022/09/09 17:11:21;;;;;;;4.60;3.33;;;;;;;23.47;67.54;100386.13;5369539;55;1139116;-72
2022/09/09 17:16:31;;;;;;;5.45;3.35;;;;;;;23.28;68.37;100381.02;5369664;55;1139094;-70
2022/09/09 17:21:38;;;;;;;29.15;12.80;;;;;;;23.20;69.03;100387.97;5369339;55;1139296;-69
2022/09/09 17:26:44;;;;;;;23.57;6.80;;;;;;;23.19;69.47;100382.25;5369512;54;1143204;-72
2022/09/09 17:31:50;;;;;;;29.75;9.55;;;;;;;23.15;70.52;100385.03;5361993;55;1141062;-71
2022/09/09 17:36:57;;;;;;;9.55;5.60;;;;;;;23.09;71.35;100393.93;5151343;57;1141100;-71
2022/09/09 17:42:03;;;;;;;27.87;13.83;;;;;;;23.00;71.63;100403.25;5237913;56;1138961;-68
2022/09/09 17:47:08;;;;;;;33.20;16.25;;;;;;;22.91;72.21;100412.05;5197082;56;1143180;-69
2022/09/09 17:52:15;;;;;;;44.25;20.40;;;;;;;22.77;73.00;100417.05;5242122;56;1143207;-72
2022/09/09 17:57:22;;;;;;;34.15;18.27;;;;;;;22.57;73.70;100429.08;5242364;56;1143317;-70
2022/09/09 18:02:28;;;;;;;36.88;10.23;;;;;;;22.45;74.84;100440.10;5242317;56;1143209;-69
2022/09/09 18:07:34;;;;;;;42.70;8.90;;;;;;;22.28;75.44;100448.17;5229224;56;1143416;-66
2022/09/09 18:12:41;;;;;;;26.17;7.37;;;;;;;22.14;76.10;100450.45;5388010;54;1141228;-70
2022/09/09 18:17:47;;;;;;;20.45;7.20;;;;;;;21.82;76.23;100449.12;5242751;56;1141429;-67
2022/09/09 18:22:53;;;;;;;9.33;3.62;;;;;;;21.61;77.21;100446.74;5242199;56;1141236;-67
2022/09/09 18:27:59;;;;;;;14.13;1.85;;;;;;;21.52;78.42;100441.69;5331657;55;1139332;-69
2022/09/09 18:33:05;;;;;;;3.17;1.65;;;;;;;21.35;79.41;100435.72;5210464;56;1141030;-69
2022/09/09 18:38:11;;;;;;;6.62;2.33;;;;;;;21.20;79.26;100427.70;5242250;56;1139281;-71
2022/09/09 18:43:17;;;;;;;7.28;2.45;;;;;;;21.08;80.22;100429.70;5242509;56;1139017;-72
2022/09/09 18:48:23;;;;;;;3.72;3.20;;;;;;;20.90;81.56;100422.04;5219542;56;1139002;-67
2022/09/09 18:53:28;;;;;;;12.78;3.83;;;;;;;20.78;81.98;100421.66;5321954;54;1138426;-70
2022/09/09 18:58:35;;;;;;;9.28;3.58;;;;;;;20.76;82.82;100421.55;5327696;54;1141093;-69
2022/09/09 19:03:42;;;;;;;5.55;4.78;;;;;;;20.73;82.96;100423.27;5332698;54;1139087;-69
2022/09/09 19:08:48;;;;;;;13.43;8.25;;;;;;;20.69;83.40;100433.03;5313070;54;1139101;-72
2022/09/09 19:14:00;;;;;;;16.30;8.78;;;;;;;20.66;83.68;100433.91;5225322;56;1141374;-70
2022/09/09 19:19:08;;;;;;;;;;;;;;;20.63;83.93;100438.31;5222673;56;1141352;-68
2022/09/09 19:24:21;;;;;;;11.50;7.40;;;;;;;20.57;83.94;100446.63;5189544;57;976553;-69
2022/09/09 19:29:29;;;;;;;12.03;6.83;;;;;;;20.51;84.47;100453.23;5184421;56;1139014;-69
2022/09/09 19:34:35;;;;;;;10.95;7.35;;;;;;;20.40;84.95;100448.33;5233646;56;1141324;-68
2022/09/09 19:39:41;;;;;;;8.90;6.75;;;;;;;20.30;85.40;100440.02;5121061;57;1141427;-68
2022/09/09 19:44:47;;;;;;;12.78;7.95;;;;;;;20.22;86.01;100452.16;5274407;56;1137074;-69
2022/09/09 19:49:52;;;;;;;18.07;9.38;;;;;;;20.18;86.18;100460.76;5134228;57;1139304;-68
2022/09/09 19:54:58;;;;;;;19.70;11.48;;;;;;;20.20;86.79;100465.44;5153929;56;1139016;-71
2022/09/09 20:00:05;;;;;;;18.45;12.18;;;;;;;20.17;87.49;100471.17;5153375;57;1141026;-67
2022/09/09 20:05:12;;;;;;;17.20;12.95;;;;;;;20.08;88.13;100469.59;5140904;57;1141242;-69
2022/09/09 20:10:19;;;;;;;18.40;12.93;;;;;;;19.99;88.69;100476.39;5185191;57;1141121;-65
2022/09/09 20:15:25;;;;;;;21.37;14.18;;;;;;;19.98;89.75;100478.75;5185971;57;1141110;-65
2022/09/09 20:20:32;;;;;;;28.40;18.23;;;;;;;20.01;89.38;100474.87;5164682;56;1141358;-69
2022/09/09 20:25:38;;;;;;;22.48;15.90;;;;;;;19.99;89.90;100484.95;5213737;56;1141137;-68
2022/09/09 20:30:44;;;;;;;24.10;16.73;;;;;;;19.87;89.90;100481.83;5222473;56;1141146;-67
2022/09/09 20:35:50;;;;;;;23.60;15.70;;;;;;;19.82;91.19;100486.09;5219034;56;1141063;-71
2022/09/09 20:40:56;;;;;;;28.57;17.50;;;;;;;19.77;92.02;100477.73;5201423;56;1141536;-70
2022/09/09 20:46:05;;;;;;;22.48;16.35;;;;;;;19.72;91.75;100478.77;5215110;56;1141176;-68
2022/09/09 20:51:12;;;;;;;30.50;17.45;;;;;;;19.61;92.10;100472.81;5253953;56;1141101;-71
2022/09/09 20:56:19;;;;;;;25.77;16.85;;;;;;;19.51;92.84;100474.07;5244842;56;1141032;-69
2022/09/09 21:01:24;;;;;;;21.15;15.83;;;;;;;19.41;94.02;100467.55;5272030;55;1141186;-68
2022/09/09 21:06:30;;;;;;;24.50;16.00;;;;;;;19.35;93.93;100466.93;5273802;56;1141223;-69
2022/09/09 21:11:38;;;;;;;28.02;19.02;;;;;;;19.25;94.39;100457.75;5273090;56;1139255;-66
2022/09/09 21:16:44;;;;;;;24.60;18.05;;;;;;;19.17;96.21;100457.81;5294461;56;21089;-70
2022/09/09 21:21:50;;;;;;;31.70;18.42;;;;;;;19.11;95.83;100467.87;5273995;55;1139080;-68
2022/09/09 21:26:55;;;;;;;52.80;26.07;;;;;;;19.08;96.47;100467.42;5274415;56;1143213;-68
2022/09/09 21:32:02;;;;;;;37.25;21.23;;;;;;;19.01;99.39;100456.55;5260148;56;1143383;-68
2022/09/09 21:37:08;;;;;;;32.13;19.90;;;;;;;18.90;98.02;100448.91;5182093;57;1143119;-69
2022/09/09 21:42:13;;;;;;;25.50;16.60;;;;;;;18.80;99.99;100457.13;5181076;56;1143222;-71
2022/09/09 21:47:20;;;;;;;21.00;16.82;;;;;;;18.77;99.67;100458.01;5240365;56;1143234;-67
2022/09/09 21:52:26;;;;;;;29.32;16.95;;;;;;;18.74;100.00;100452.98;5273774;55;1143277;-71
2022/09/09 21:57:33;;;;;;;24.27;15.32;;;;;;;18.70;100.00;100451.16;5273387;56;1145298;-67
2022/09/09 22:02:40;;;;;;;22.90;15.15;;;;;;;18.64;100.00;100447.01;5250624;56;1145297;-69
2022/09/09 22:07:46;;;;;;;24.27;14.75;;;;;;;18.60;100.00;100449.19;5273769;55;1145257;-68
2022/09/09 22:12:53;;;;;;;19.90;15.08;;;;;;;18.56;100.00;100452.67;5274001;56;1145700;-67
2022/09/09 22:18:04;;;;;;;22.65;14.68;;;;;;;18.51;100.00;100451.01;5273692;56;1145360;-68
2022/09/09 22:23:12;;;;;;;21.00;13.32;;;;;;;18.48;100.00;100448.70;5315324;55;1145270;-68
2022/09/09 22:28:17;;;;;;;21.97;15.00;;;;;;;18.42;100.00;100440.00;5317597;55;1145645;-67
2022/09/09 22:33:24;;;;;;;21.60;14.18;;;;;;;18.31;100.00;100439.53;5277766;55;1145262;-69
2022/09/09 22:38:33;;;;;;;19.25;14.50;;;;;;;18.24;100.00;100444.22;5331588;55;1145263;-69
2022/09/09 22:43:37;;;;;;;25.32;16.23;;;;;;;18.24;100.00;100444.72;5331026;55;1145305;-69
2022/09/09 22:48:44;;;;;;;26.17;16.23;;;;;;;18.19;100.00;100437.69;5250144;55;1145310;-67
2022/09/09 22:53:50;;;;;;;23.25;16.05;;;;;;;18.16;100.00;100437.55;5311964;55;1145214;-69
2022/09/09 22:58:57;;;;;;;22.32;15.53;;;;;;;18.17;100.00;100435.21;5332550;55;1145290;-67
2022/09/09 23:04:03;;;;;;;22.62;15.90;;;;;;;18.19;100.00;100442.55;5289769;55;1145258;-67
2022/09/09 23:09:11;;;;;;;21.10;16.10;;;;;;;18.20;100.00;100447.39;5261182;55;1145199;-67
2022/09/09 23:14:17;;;;;;;22.62;16.12;;;;;;;18.15;100.00;100438.56;5266001;55;1145448;-67
2022/09/09 23:19:24;;;;;;;20.23;15.38;;;;;;;18.16;100.00;100440.73;5279892;55;1145274;-65